Time;durP1;ratioP1;P1;durP2;ratioP2;P2;SDS_P1;SDS_P2;PMS_P1;PMS_P2;Temp;Humidity;BMP_temperature;BMP_pressure;BME280_temperature;BME280_humidity;BME280_pressure;Samples;Min_cycle;Max_cycle;Signal;HPM_P1;HPM_P2
2022/08/06 00:01:54;;;;;;;6.88;1.90;;;;;;;14.46;65.85;102329.16;3585771;39;20096;-63
2022/08/06 00:04:20;;;;;;;6.80;2.20;;;;;;;14.46;65.67;102335.47;3585677;40;20137;-62
2022/08/06 00:06:46;;;;;;;4.00;2.00;;;;;;;14.46;65.37;102335.47;3586959;39;20047;-63
2022/08/06 00:09:12;;;;;;;6.47;2.30;;;;;;;14.17;65.55;102294.59;3585504;40;20098;-63
2022/08/06 00:11:39;;;;;;;4.95;1.90;;;;;;;14.23;65.49;102309.63;3584931;40;20121;-62
2022/08/06 00:14:06;;;;;;;3.67;2.30;;;;;;;14.29;65.42;102330.09;3586259;40;20339;-63
2022/08/06 00:16:32;;;;;;;7.90;2.20;;;;;;;14.32;65.78;102344.31;3586497;40;20129;-63
2022/08/06 00:18:57;;;;;;;5.80;2.20;;;;;;;14.27;65.28;102341.00;3585911;39;20052;-63
2022/08/06 00:21:23;;;;;;;3.65;2.08;;;;;;;14.21;65.83;102340.41;3584570;40;20064;-62
2022/08/06 00:23:49;;;;;;;4.95;2.20;;;;;;;14.15;66.31;102341.66;3584766;40;20059;-62
2022/08/06 00:26:14;;;;;;;6.00;2.38;;;;;;;14.13;65.60;102352.53;3586389;40;20056;-63
2022/08/06 00:28:40;;;;;;;7.65;2.92;;;;;;;14.07;66.20;102350.16;3584789;40;20048;-63
2022/08/06 00:31:07;;;;;;;6.40;2.40;;;;;;;14.08;66.27;102356.41;3584903;40;20079;-63
2022/08/06 00:33:34;;;;;;;4.30;2.35;;;;;;;14.05;66.45;102352.06;3584296;40;20048;-63
2022/08/06 00:35:59;;;;;;;6.82;2.20;;;;;;;14.02;66.27;102354.03;3585854;39;20064;-63
2022/08/06 00:38:25;;;;;;;5.50;2.60;;;;;;;14.06;66.03;102361.06;3585356;40;20063;-62
2022/08/06 00:40:52;;;;;;;9.30;2.85;;;;;;;14.01;65.99;102357.69;3584374;39;20052;-63
2022/08/06 00:43:19;;;;;;;5.78;2.42;;;;;;;13.97;66.55;102354.28;3585476;40;20586;-63
2022/08/06 00:45:45;;;;;;;7.78;2.50;;;;;;;13.98;66.46;102356.03;3586355;40;20124;-62
2022/08/06 00:48:11;;;;;;;7.13;2.35;;;;;;;13.96;66.22;102352.53;3584169;40;20433;-63
2022/08/06 00:50:36;;;;;;;5.75;2.67;;;;;;;13.94;66.67;102354.44;3587151;39;20545;-62
2022/08/06 00:53:04;;;;;;;5.60;2.88;;;;;;;13.91;66.20;102360.00;3584752;39;20115;-63
2022/08/06 00:55:30;;;;;;;9.55;2.67;;;;;;;13.85;66.78;102354.91;3585628;40;20064;-63
2022/08/06 00:57:56;;;;;;;7.63;2.38;;;;;;;13.86;67.07;102362.97;3585055;39;20299;-62
2022/08/06 01:00:22;;;;;;;7.05;2.50;;;;;;;13.85;67.02;102360.31;3584146;40;20075;-62
2022/08/06 01:02:47;;;;;;;8.65;2.25;;;;;;;13.84;67.42;102361.28;3583295;40;20060;-63
2022/08/06 01:05:13;;;;;;;7.40;2.42;;;;;;;13.80;67.11;102370.50;3583926;40;20071;-62
2022/08/06 01:07:38;;;;;;;5.07;2.30;;;;;;;13.78;67.51;102370.56;3586068;39;20052;-61
2022/08/06 01:10:04;;;;;;;6.40;2.42;;;;;;;13.73;67.48;102385.25;3584051;40;20071;-62
2022/08/06 01:12:30;;;;;;;6.65;2.33;;;;;;;13.74;67.69;102385.19;3585475;40;20522;-62
2022/08/06 01:14:56;;;;;;;6.20;2.50;;;;;;;13.74;67.77;102387.91;3583563;40;20064;-62
2022/08/06 01:18:04;;;;;;;5.90;2.50;;;;;;;13.74;67.99;102389.75;3584813;40;20382;-62
2022/08/06 01:21:09;;;;;;;5.30;2.25;;;;;;;13.75;67.33;102388.78;3585780;40;20068;-62
2022/08/06 01:24:23;;;;;;;4.05;2.47;;;;;;;13.70;67.18;102392.59;3584129;40;20083;-62
2022/08/06 01:27:14;;;;;;;5.57;2.72;;;;;;;13.72;67.96;102394.31;3584354;40;20045;-62
2022/08/06 01:29:50;;;;;;;5.20;2.42;;;;;;;13.73;67.51;102396.06;3584364;40;20130;-62
2022/08/06 01:32:27;;;;;;;6.82;2.83;;;;;;;13.73;67.66;102390.66;3585112;39;20092;-62
2022/08/06 01:35:01;;;;;;;4.78;2.53;;;;;;;13.72;67.35;102391.63;3582602;40;20071;-62
2022/08/06 01:37:36;;;;;;;4.95;2.65;;;;;;;13.72;67.81;102391.63;3584239;40;20044;-62
2022/08/06 01:40:11;;;;;;;5.97;2.40;;;;;;;13.72;68.19;102388.94;3584173;40;20055;-62
2022/08/06 01:42:41;;;;;;;8.55;3.00;;;;;;;13.72;68.00;102391.63;3585113;40;20309;-62
2022/08/06 01:45:15;;;;;;;5.95;2.95;;;;;;;13.68;68.13;102390.91;3584717;40;20055;-62
2022/08/06 01:47:47;;;;;;;7.20;2.78;;;;;;;13.46;68.03;102364.06;3585847;39;20056;-62
2022/08/06 01:50:17;;;;;;;6.20;2.75;;;;;;;13.65;68.27;102393.75;3582009;40;20573;-62
2022/08/06 01:52:44;;;;;;;6.90;2.90;;;;;;;13.63;68.50;102403.75;3583928;40;20060;-62
2022/08/06 01:55:15;;;;;;;4.20;2.95;;;;;;;13.64;68.70;102395.59;3584714;39;20362;-62
2022/08/06 01:57:52;;;;;;;8.38;3.13;;;;;;;13.64;68.34;102398.31;3583841;40;20056;-62
2022/08/06 02:00:19;;;;;;;6.57;3.10;;;;;;;13.61;68.37;102395.75;3583765;40;20064;-61
2022/08/06 02:02:49;;;;;;;4.63;3.15;;;;;;;13.66;68.24;102404.47;3586223;40;20061;-62
2022/08/06 02:05:20;;;;;;;5.75;2.90;;;;;;;13.52;68.38;102374.59;3584719;39;20056;-62
2022/08/06 02:07:52;;;;;;;5.40;3.25;;;;;;;13.61;68.18;102406.56;3585264;40;20371;-62
2022/08/06 02:10:25;;;;;;;5.05;2.50;;;;;;;13.60;68.41;102404.78;3583822;40;20064;-62
2022/08/06 02:12:52;;;;;;;7.47;3.03;;;;;;;13.56;67.65;102399.63;3585675;40;20100;-62
2022/08/06 02:15:28;;;;;;;9.82;2.90;;;;;;;13.50;68.92;102403.50;3583615;40;20063;-62
2022/08/06 02:18:01;;;;;;;5.47;2.83;;;;;;;13.46;68.94;102407.31;3585224;40;20059;-62
2022/08/06 02:20:43;;;;;;;6.10;3.00;;;;;;;13.45;68.52;102405.56;3586607;40;20125;-62
2022/08/06 02:23:16;;;;;;;3.85;2.80;;;;;;;13.32;68.70;102388.16;3582062;40;20403;-62
2022/08/06 02:25:46;;;;;;;8.73;2.97;;;;;;;13.39;69.00;102406.72;3585920;40;20095;-61
2022/08/06 02:28:14;;;;;;;8.07;3.00;;;;;;;13.31;68.63;102408.03;3584081;39;20371;-62
2022/08/06 02:30:47;;;;;;;4.43;2.90;;;;;;;13.29;69.33;102416.22;3584858;40;20064;-62
2022/08/06 02:33:14;;;;;;;8.20;3.50;;;;;;;13.24;69.81;102413.72;3583013;40;20118;-62
2022/08/06 02:35:47;;;;;;;6.72;3.75;;;;;;;13.19;70.26;102412.16;3584571;40;20127;-62
2022/08/06 02:38:50;;;;;;;6.63;3.35;;;;;;;13.04;70.27;102394.88;3584674;40;20107;-62
2022/08/06 02:41:32;;;;;;;7.25;3.58;;;;;;;13.12;70.66;102408.88;3584443;40;20048;-62
2022/08/06 02:44:26;;;;;;;9.07;3.50;;;;;;;13.04;71.45;102405.69;3585271;40;20052;-61
2022/08/06 02:47:29;;;;;;;10.63;3.80;;;;;;;12.99;71.29;102413.09;3585845;40;20056;-62
2022/08/06 02:50:00;;;;;;;10.60;3.55;;;;;;;12.88;71.56;102394.72;3587453;40;20052;-62
2022/08/06 02:52:49;;;;;;;7.13;3.80;;;;;;;12.95;71.29;102404.28;3584254;39;20137;-62
2022/08/06 02:55:19;;;;;;;6.07;3.00;;;;;;;12.93;71.52;102406.16;3585532;40;20093;-62
2022/08/06 02:58:11;;;;;;;5.60;3.17;;;;;;;12.89;71.97;102407.25;3586921;40;20087;-63
2022/08/06 03:00:42;;;;;;;3.28;2.65;;;;;;;12.86;71.54;102407.41;3587076;39;20453;-63
2022/08/06 03:03:14;;;;;;;7.15;3.30;;;;;;;12.81;72.11;102409.41;3584697;40;20067;-62
2022/08/06 03:05:44;;;;;;;8.00;3.67;;;;;;;12.78;71.86;102413.16;3588561;40;20374;-62
2022/08/06 03:08:18;;;;;;;10.02;3.78;;;;;;;12.66;72.63;102400.22;3584865;40;20085;-62
2022/08/06 03:10:46;;;;;;;8.20;3.33;;;;;;;12.67;72.54;102414.59;3585329;40;20370;-62
2022/08/06 03:13:15;;;;;;;5.30;3.15;;;;;;;12.63;71.86;102413.84;3586300;39;20044;-62
2022/08/06 03:15:44;;;;;;;5.07;3.38;;;;;;;12.61;72.00;102413.03;3584387;40;20060;-62
2022/08/06 03:18:15;;;;;;;8.20;3.42;;;;;;;12.64;72.09;102417.41;3585120;40;20060;-63
2022/08/06 03:20:43;;;;;;;7.97;3.80;;;;;;;12.61;73.19;102412.16;3586336;40;20058;-62
2022/08/06 03:23:13;;;;;;;7.13;3.85;;;;;;;12.61;73.80;102412.16;3584325;40;20052;-62
2022/08/06 03:25:43;;;;;;;9.88;3.75;;;;;;;12.59;73.51;102416.72;3585879;40;20059;-62
2022/08/06 03:28:14;;;;;;;7.35;3.95;;;;;;;12.46;74.26;102405.63;3583869;40;20413;-63
2022/08/06 03:30:43;;;;;;;9.73;3.70;;;;;;;12.50;74.20;102420.75;3586722;40;20064;-62
2022/08/06 03:33:14;;;;;;;7.20;3.45;;;;;;;12.49;74.31;102424.38;3585871;40;20052;-62
2022/08/06 03:35:42;;;;;;;8.95;3.70;;;;;;;12.40;73.67;102424.75;3583295;40;20071;-63
2022/08/06 03:38:11;;;;;;;5.80;3.80;;;;;;;12.38;74.37;102429.38;3586823;40;20060;-62
2022/08/06 03:40:43;;;;;;;5.47;3.25;;;;;;;12.38;74.56;102429.38;3586728;39;20380;-62
2022/08/06 03:43:09;;;;;;;6.07;3.40;;;;;;;12.32;73.77;102425.97;3585165;40;20349;-62
2022/08/06 03:45:44;;;;;;;7.10;4.10;;;;;;;12.32;74.10;102436.78;3585738;40;20064;-62
2022/08/06 03:48:19;;;;;;;7.82;3.80;;;;;;;12.32;74.13;102433.19;3584947;40;20061;-62
2022/08/06 03:50:49;;;;;;;7.13;3.50;;;;;;;12.29;74.32;102430.63;3585032;40;20405;-62
2022/08/06 03:53:26;;;;;;;8.90;3.55;;;;;;;12.32;74.29;102441.28;3583817;40;20052;-63
2022/08/06 03:56:01;;;;;;;6.57;3.95;;;;;;;12.36;74.52;102437.50;3584365;40;20317;-62
2022/08/06 03:58:28;;;;;;;6.43;4.05;;;;;;;12.34;73.50;102441.22;3583920;40;20424;-62
2022/08/06 04:01:03;;;;;;;4.95;3.40;;;;;;;12.31;74.28;102453.91;3586346;40;20122;-62
2022/08/06 04:03:31;;;;;;;8.20;3.53;;;;;;;12.27;74.35;102451.38;3587509;40;20331;-62
2022/08/06 04:05:59;;;;;;;8.57;3.80;;;;;;;12.27;75.22;102451.38;3584465;40;20063;-62
2022/08/06 04:08:26;;;;;;;9.52;4.05;;;;;;;12.00;74.98;102399.56;3583919;40;20071;-62
2022/08/06 04:10:53;;;;;;;8.32;3.78;;;;;;;12.31;74.62;102455.72;3585423;40;20064;-62
2022/08/06 04:13:23;;;;;;;8.57;4.00;;;;;;;12.01;74.72;102407.56;3586618;40;20606;-62
2022/08/06 04:15:52;;;;;;;5.63;3.70;;;;;;;12.29;74.64;102461.16;3584415;40;20060;-62
2022/08/06 04:18:24;;;;;;;7.22;3.53;;;;;;;12.15;74.80;102441.16;3583732;40;20118;-62
2022/08/06 04:20:59;;;;;;;6.38;3.38;;;;;;;12.30;74.11;102460.25;3583332;40;20073;-62
2022/08/06 04:23:24;;;;;;;4.75;3.22;;;;;;;12.32;74.46;102462.88;3583252;40;20078;-62
2022/08/06 04:25:57;;;;;;;12.20;3.92;;;;;;;12.31;73.50;102467.38;3585306;40;20059;-60
2022/08/06 04:28:27;;;;;;;5.55;3.80;;;;;;;12.32;73.83;102466.44;3587882;40;20068;-61
2022/08/06 04:30:58;;;;;;;6.45;3.65;;;;;;;12.31;73.50;102466.50;3584111;40;20355;-61
2022/08/06 04:33:27;;;;;;;6.57;3.75;;;;;;;12.13;73.86;102454.69;3583696;40;20055;-61
2022/08/06 04:35:54;;;;;;;7.78;3.80;;;;;;;12.28;74.08;102467.53;3585572;40;20393;-61
2022/08/06 04:38:23;;;;;;;12.13;3.95;;;;;;;12.16;73.82;102454.56;3581927;40;20047;-61
2022/08/06 04:40:50;;;;;;;5.65;3.55;;;;;;;12.30;73.48;102468.34;3587127;40;20059;-61
2022/08/06 04:43:17;;;;;;;4.72;3.83;;;;;;;12.28;72.32;102470.22;3586582;40;20044;-61
2022/08/06 04:45:44;;;;;;;9.15;3.88;;;;;;;12.30;73.31;102472.81;3586344;40;20044;-61
2022/08/06 04:48:13;;;;;;;8.07;3.78;;;;;;;12.30;72.65;102464.75;3585512;40;20455;-61
2022/08/06 04:50:39;;;;;;;9.55;3.80;;;;;;;12.34;72.22;102473.56;3585225;39;20056;-61
2022/08/06 04:53:11;;;;;;;6.28;3.78;;;;;;;12.41;72.89;102480.47;3583998;40;20133;-61
2022/08/06 04:55:38;;;;;;;6.90;3.65;;;;;;;12.46;72.24;102489.22;3585888;40;20390;-61
2022/08/06 04:58:10;;;;;;;5.03;3.50;;;;;;;12.51;72.69;102489.91;3587515;40;20063;-60
2022/08/06 05:00:46;;;;;;;7.85;4.60;;;;;;;12.55;72.15;102494.22;3584965;40;20468;-61
2022/08/06 05:03:12;;;;;;;8.38;4.07;;;;;;;12.27;72.19;102443.28;3586618;40;20043;-62
2022/08/06 05:05:53;;;;;;;5.82;3.80;;;;;;;12.59;72.19;102485.09;3586346;40;20051;-61
2022/08/06 05:08:23;;;;;;;10.40;3.83;;;;;;;12.58;72.32;102487.84;3587025;40;20058;-61
2022/08/06 05:11:01;;;;;;;6.43;3.92;;;;;;;12.62;72.93;102498.41;3587200;40;20071;-61
2022/08/06 05:13:36;;;;;;;8.45;4.47;;;;;;;12.45;72.87;102460.50;3584249;39;20051;-61
2022/08/06 05:16:11;;;;;;;10.88;4.45;;;;;;;12.72;72.66;102499.78;3588215;40;20129;-61
2022/08/06 05:18:49;;;;;;;8.23;4.05;;;;;;;12.83;72.41;102493.03;3586276;40;20121;-61
2022/08/06 05:21:27;;;;;;;8.15;4.10;;;;;;;12.92;72.98;102506.97;3585970;40;20365;-61
2022/08/06 05:23:54;;;;;;;7.90;4.00;;;;;;;12.96;72.05;102507.72;3586352;40;20122;-61
2022/08/06 05:26:22;;;;;;;12.05;4.70;;;;;;;13.03;72.44;102506.50;3585652;40;20658;-61
2022/08/06 05:28:48;;;;;;;9.15;4.43;;;;;;;13.03;72.37;102501.09;3586551;40;20063;-61
2022/08/06 05:31:14;;;;;;;8.45;4.18;;;;;;;13.15;72.15;102511.34;3584302;40;20056;-61
2022/08/06 05:33:41;;;;;;;7.07;3.80;;;;;;;13.09;71.78;102491.84;3584499;40;20080;-61
2022/08/06 05:36:10;;;;;;;6.55;4.40;;;;;;;13.30;71.76;102517.03;3585168;40;20125;-61
2022/08/06 05:38:39;;;;;;;6.70;3.65;;;;;;;13.38;71.82;102517.53;3583152;40;20481;-61
2022/08/06 05:41:09;;;;;;;9.07;3.85;;;;;;;13.45;71.06;102513.63;3585209;39;20048;-61
2022/08/06 05:43:37;;;;;;;8.10;4.22;;;;;;;13.52;71.02;102515.06;3583211;40;20060;-61
2022/08/06 05:46:13;;;;;;;9.05;4.20;;;;;;;13.61;70.85;102516.47;3587664;40;20140;-61
2022/08/06 05:48:52;;;;;;;7.68;4.15;;;;;;;13.43;70.84;102477.69;3585205;40;20328;-61
2022/08/06 05:51:35;;;;;;;5.63;3.80;;;;;;;13.73;70.89;102513.16;3586808;39;20148;-61
2022/08/06 05:54:31;;;;;;;7.00;3.80;;;;;;;13.92;70.74;102523.94;3585476;40;20198;-62
2022/08/06 05:57:18;;;;;;;9.60;3.88;;;;;;;14.04;70.20;102523.34;3584233;40;20046;-62
2022/08/06 05:59:58;;;;;;;7.03;4.00;;;;;;;14.17;70.24;102526.34;3587761;40;20051;-62
2022/08/06 06:02:28;;;;;;;5.47;3.63;;;;;;;14.26;69.82;102522.28;3586295;39;20120;-62
2022/08/06 06:04:54;;;;;;;10.55;4.47;;;;;;;14.36;70.26;102526.28;3583781;40;20378;-62
2022/08/06 06:07:22;;;;;;;7.18;3.67;;;;;;;14.46;70.08;102527.59;3585781;40;20068;-62
2022/08/06 06:09:49;;;;;;;8.18;3.17;;;;;;;14.58;70.02;102534.22;3587354;40;20112;-62
2022/08/06 06:12:16;;;;;;;7.70;3.22;;;;;;;14.69;69.69;102525.56;3584661;39;20738;-62
2022/08/06 06:14:47;;;;;;;9.05;3.33;;;;;;;14.81;69.43;102531.22;3584939;39;20048;-62
2022/08/06 06:17:51;;;;;;;7.88;3.33;;;;;;;14.95;68.71;102538.59;3585181;40;20048;-62
2022/08/06 06:20:23;;;;;;;10.88;3.25;;;;;;;15.07;68.79;102542.50;3584868;40;20055;-61
2022/08/06 06:23:06;;;;;;;7.93;2.95;;;;;;;15.21;68.20;102529.06;3587451;40;20319;-62
2022/08/06 06:26:08;;;;;;;7.97;3.30;;;;;;;15.34;68.00;102532.00;3587690;39;20052;-62
2022/08/06 06:29:05;;;;;;;6.50;2.53;;;;;;;15.49;67.38;102538.41;3587109;39;20069;-62
2022/08/06 06:32:22;;;;;;;5.05;2.65;;;;;;;15.65;66.45;102542.00;3586424;39;20099;-62
2022/08/06 06:35:17;;;;;;;3.95;2.20;;;;;;;15.89;65.85;102539.81;3552849;40;20061;-62
2022/08/06 06:37:56;;;;;;;6.00;2.22;;;;;;;16.06;65.43;102541.53;3586634;39;20043;-61
2022/08/06 06:41:05;;;;;;;9.57;2.58;;;;;;;16.28;64.53;102541.16;3584429;40;20056;-62
2022/08/06 06:44:12;;;;;;;8.05;2.10;;;;;;;16.54;64.01;102544.19;3587981;40;20055;-62
2022/08/06 06:47:04;;;;;;;3.92;1.85;;;;;;;16.76;63.41;102544.69;3586668;40;20055;-62
2022/08/06 06:49:48;;;;;;;3.78;1.92;;;;;;;16.97;63.02;102547.94;3586255;39;20075;-63
2022/08/06 06:52:26;;;;;;;4.30;1.70;;;;;;;17.10;61.60;102524.47;3586888;40;20055;-62
2022/08/06 06:55:11;;;;;;;5.57;2.13;;;;;;;17.47;61.11;102545.72;3587745;40;20126;-63
2022/08/06 06:57:46;;;;;;;4.10;1.80;;;;;;;17.75;60.16;102548.41;3587771;40;20387;-63
2022/08/06 07:00:13;;;;;;;3.50;1.85;;;;;;;18.01;59.33;102556.75;3586801;40;20117;-63
2022/08/06 07:02:41;;;;;;;7.85;1.90;;;;;;;18.18;58.73;102542.94;3585398;40;20056;-62
2022/08/06 07:05:11;;;;;;;5.70;1.70;;;;;;;18.41;58.28;102545.94;3585424;40;20049;-63
2022/08/06 07:07:41;;;;;;;7.57;1.83;;;;;;;18.56;56.39;102544.91;3584468;40;20082;-62
2022/08/06 07:10:12;;;;;;;3.80;1.38;;;;;;;18.63;55.41;102548.97;3586142;40;20129;-63
2022/08/06 07:12:44;;;;;;;4.97;1.70;;;;;;;18.77;55.53;102551.66;3585581;40;20084;-63
2022/08/06 07:15:14;;;;;;;5.30;1.10;;;;;;;18.98;54.36;102556.56;3584402;40;20060;-63
2022/08/06 07:17:42;;;;;;;8.73;1.80;;;;;;;19.17;55.37;102564.34;3585366;40;20390;-63
2022/08/06 07:20:12;;;;;;;5.72;1.48;;;;;;;19.37;53.95;102561.06;3584344;40;20065;-63
2022/08/06 07:22:42;;;;;;;5.38;1.45;;;;;;;19.45;52.84;102563.25;3585186;40;20096;-63
2022/08/06 07:25:14;;;;;;;4.18;1.27;;;;;;;19.55;52.32;102561.59;3585503;40;20051;-63
2022/08/06 07:27:45;;;;;;;3.45;1.30;;;;;;;19.65;52.59;102570.00;3588317;39;20114;-63
2022/08/06 07:30:18;;;;;;;7.90;0.70;;;;;;;19.82;51.95;102561.47;3587468;39;20416;-64
2022/08/06 07:32:48;;;;;;;1.77;0.88;;;;;;;19.99;51.38;102579.34;3586648;40;20051;-63
2022/08/06 07:35:17;;;;;;;2.63;0.80;;;;;;;20.05;50.94;102581.63;3585814;40;20064;-63
2022/08/06 07:38:05;;;;;;;3.63;0.88;;;;;;;20.12;49.78;102574.72;3587747;39;20085;-63
2022/08/06 07:40:52;;;;;;;3.50;0.77;;;;;;;20.17;49.40;102586.16;3588245;39;20437;-63
2022/08/06 07:43:53;;;;;;;4.13;1.05;;;;;;;20.38;49.94;102577.34;3585093;40;20133;-63
2022/08/06 07:46:26;;;;;;;3.15;0.82;;;;;;;20.58;49.53;102576.75;3585201;40;20079;-61
2022/08/06 07:49:03;;;;;;;3.42;1.65;;;;;;;20.78;48.37;102577.94;3586847;40;20055;-61
2022/08/06 07:51:36;;;;;;;4.10;0.95;;;;;;;20.81;47.77;102582.31;3584655;40;20052;-63
2022/08/06 07:54:05;;;;;;;3.15;1.10;;;;;;;20.75;47.06;102588.25;3584351;40;20064;-62
2022/08/06 07:56:34;;;;;;;2.15;0.88;;;;;;;20.79;48.39;102589.72;3585470;40;20391;-63
2022/08/06 07:59:03;;;;;;;4.18;0.80;;;;;;;20.92;47.10;102590.53;3585995;40;20348;-64
2022/08/06 08:01:32;;;;;;;7.78;1.50;;;;;;;21.03;45.85;102582.38;3586309;40;20051;-64
2022/08/06 08:06:44;;;;;;;3.80;1.00;;;;;;;20.96;45.67;102578.34;3585492;40;20092;-64
2022/08/06 08:09:16;;;;;;;2.97;0.98;;;;;;;21.20;46.47;102588.38;3587614;40;20356;-64
2022/08/06 08:11:46;;;;;;;2.05;0.88;;;;;;;21.32;47.16;102592.88;3585603;40;20060;-64
2022/08/06 08:14:18;;;;;;;3.95;1.20;;;;;;;21.48;46.39;102582.47;3584421;40;20056;-64
2022/08/06 08:16:43;;;;;;;3.05;0.98;;;;;;;21.74;45.51;102594.03;3583565;40;20055;-64
2022/08/06 08:19:30;;;;;;;4.68;1.05;;;;;;;21.90;45.04;102593.66;3586650;40;20514;-64
2022/08/06 08:22:15;;;;;;;5.55;1.20;;;;;;;21.98;45.37;102593.91;3585296;40;20048;-65
2022/08/06 08:24:44;;;;;;;2.13;1.10;;;;;;;22.20;44.54;102601.25;3586413;40;20059;-64
2022/08/06 08:27:11;;;;;;;4.15;0.95;;;;;;;22.34;42.71;102589.13;3587313;39;20136;-64
2022/08/06 08:29:39;;;;;;;3.55;0.90;;;;;;;22.35;42.42;102585.38;3585585;40;20048;-64
2022/08/06 08:32:07;;;;;;;3.30;0.85;;;;;;;22.39;42.44;102589.63;3584266;40;20060;-65
2022/08/06 08:34:33;;;;;;;2.75;0.88;;;;;;;22.26;42.39;102588.91;3582466;40;20056;-64
2022/08/06 08:36:59;;;;;;;2.47;0.82;;;;;;;22.38;42.73;102593.34;3583858;39;20052;-65
2022/08/06 08:39:27;;;;;;;2.33;1.00;;;;;;;22.39;42.31;102592.38;3585231;40;20060;-65
2022/08/06 08:42:09;;;;;;;3.20;0.70;;;;;;;22.60;42.23;102586.06;3584032;40;20048;-65
2022/08/06 08:44:35;;;;;;;2.75;0.70;;;;;;;22.78;41.57;102598.19;3588507;39;20066;-64
2022/08/06 08:47:03;;;;;;;3.63;0.80;;;;;;;23.03;40.79;102598.88;3587153;40;20075;-64
2022/08/06 08:49:57;;;;;;;5.10;1.13;;;;;;;23.19;40.90;102592.91;3585361;40;20050;-65
2022/08/06 08:52:33;;;;;;;2.55;0.60;;;;;;;23.21;38.83;102589.00;3583724;40;20056;-65
2022/08/06 08:55:04;;;;;;;2.47;0.85;;;;;;;23.32;39.17;102588.09;3586480;40;20068;-65
2022/08/06 08:57:32;;;;;;;1.83;0.65;;;;;;;23.36;38.36;102575.81;3587000;40;20058;-65
2022/08/06 09:00:01;;;;;;;1.70;0.57;;;;;;;23.55;36.37;102594.28;3584425;40;20144;-64
2022/08/06 09:02:28;;;;;;;4.80;0.82;;;;;;;23.68;35.85;102592.16;3585174;39;20310;-65
2022/08/06 09:04:54;;;;;;;2.38;0.55;;;;;;;23.97;35.37;102594.19;3586195;39;20117;-65
2022/08/06 09:07:20;;;;;;;1.02;0.50;;;;;;;24.21;35.93;102600.19;3584921;40;20325;-65
2022/08/06 09:09:46;;;;;;;1.55;0.82;;;;;;;24.26;36.43;102595.16;3584038;39;20096;-65
2022/08/06 09:12:12;;;;;;;3.42;0.68;;;;;;;24.27;35.75;102602.38;3584340;40;20052;-64
2022/08/06 09:14:38;;;;;;;1.02;0.35;;;;;;;24.59;34.02;102612.28;3588495;39;20066;-65
2022/08/06 09:17:05;;;;;;;2.20;0.68;;;;;;;24.91;35.61;102603.75;3585996;40;20254;-64
2022/08/06 09:19:33;;;;;;;1.50;0.50;;;;;;;24.98;35.08;102604.03;3584949;40;20052;-64
2022/08/06 09:22:00;;;;;;;1.50;0.43;;;;;;;25.09;34.74;102603.88;3584346;40;20056;-64
2022/08/06 09:24:26;;;;;;;4.50;0.90;;;;;;;24.51;35.10;102591.00;3586298;40;20060;-64
2022/08/06 09:27:06;;;;;;;2.33;0.52;;;;;;;24.38;35.69;102614.25;3584407;40;20056;-65
2022/08/06 09:29:33;;;;;;;1.85;0.77;;;;;;;24.15;35.08;102614.50;3586682;40;20048;-65
2022/08/06 09:32:00;;;;;;;3.35;0.70;;;;;;;23.65;35.98;102611.66;3586332;40;20064;-65
2022/08/06 09:34:38;;;;;;;1.70;0.73;;;;;;;23.44;35.31;102608.06;3588816;39;20332;-65
2022/08/06 09:37:05;;;;;;;1.83;0.80;;;;;;;23.67;34.18;102615.16;3586880;40;20080;-65
2022/08/06 09:39:40;;;;;;;3.78;2.20;;;;;;;23.91;35.31;102605.72;3588313;40;20059;-65
2022/08/06 09:42:07;;;;;;;2.53;1.38;;;;;;;24.20;36.69;102609.44;3587310;40;20390;-65
2022/08/06 09:44:33;;;;;;;4.03;1.02;;;;;;;24.37;35.70;102609.78;3586913;40;20113;-65
2022/08/06 09:47:00;;;;;;;2.55;1.10;;;;;;;24.46;37.77;102611.72;3589680;40;20056;-65
2022/08/06 09:49:28;;;;;;;3.15;0.68;;;;;;;24.65;35.39;102594.34;3588108;39;20052;-65
2022/08/06 09:52:15;;;;;;;2.78;0.70;;;;;;;24.91;36.14;102611.16;3587401;40;20263;-65
2022/08/06 09:54:41;;;;;;;1.58;0.60;;;;;;;24.96;35.21;102590.44;3587042;40;20128;-65
2022/08/06 09:57:07;;;;;;;1.95;0.75;;;;;;;25.31;33.75;102607.34;3588788;39;20059;-65
2022/08/06 09:59:48;;;;;;;0.77;0.50;;;;;;;25.32;32.49;102604.44;3588763;40;20055;-64
2022/08/06 10:02:20;;;;;;;1.67;0.77;;;;;;;24.94;32.82;102616.34;3585594;39;20060;-64
2022/08/06 10:04:48;;;;;;;1.73;0.75;;;;;;;24.73;32.91;102625.59;3586426;40;20045;-64
2022/08/06 10:07:16;;;;;;;2.17;0.63;;;;;;;24.77;34.54;102609.72;3587493;39;20048;-64
2022/08/06 10:09:53;;;;;;;2.50;0.60;;;;;;;24.82;32.97;102568.84;3587688;40;20347;-64
2022/08/06 10:12:23;;;;;;;1.77;0.60;;;;;;;25.19;33.54;102610.28;3585271;39;20072;-64
2022/08/06 10:14:49;;;;;;;3.40;0.75;;;;;;;25.30;32.62;102605.63;3584984;40;20142;-65
2022/08/06 10:17:22;;;;;;;2.33;0.80;;;;;;;25.43;33.03;102603.41;3585894;40;20724;-64
2022/08/06 10:20:17;;;;;;;5.93;2.72;;;;;;;25.00;30.62;102604.75;3587283;40;20047;-64
2022/08/06 10:22:54;;;;;;;1.77;1.17;;;;;;;24.82;30.68;102606.50;3588851;40;20096;-64
2022/08/06 10:25:23;;;;;;;1.98;0.60;;;;;;;24.81;31.50;102593.78;3587860;40;20157;-64
2022/08/06 10:27:54;;;;;;;3.10;0.73;;;;;;;25.10;31.06;102600.13;3590357;39;20063;-65
2022/08/06 10:30:21;;;;;;;1.80;0.60;;;;;;;25.35;30.86;102595.03;3590382;40;20440;-65
2022/08/06 10:32:55;;;;;;;1.80;0.60;;;;;;;25.61;29.97;102598.00;3588523;39;20088;-65
2022/08/06 10:35:23;;;;;;;3.55;1.85;;;;;;;25.89;31.06;102590.66;3589526;40;20056;-64
2022/08/06 10:38:00;;;;;;;5.82;2.85;;;;;;;26.22;31.35;102596.56;3588311;39;20696;-64
2022/08/06 10:40:28;;;;;;;12.95;11.57;;;;;;;26.19;31.64;102559.13;3587793;40;20087;-64
2022/08/06 10:42:55;;;;;;;3.60;0.90;;;;;;;26.43;30.61;102588.00;3587693;39;20121;-65
2022/08/06 10:45:23;;;;;;;1.02;0.50;;;;;;;26.51;28.34;102590.88;3586769;39;20405;-64
2022/08/06 10:47:49;;;;;;;1.08;0.40;;;;;;;26.58;29.69;102590.09;3588559;39;20083;-64
2022/08/06 10:50:15;;;;;;;17.58;14.98;;;;;;;26.57;29.13;102584.72;3589224;40;20070;-65
2022/08/06 10:52:43;;;;;;;24.42;20.08;;;;;;;26.70;29.92;102589.84;3585990;40;20068;-65
2022/08/06 10:55:10;;;;;;;5.93;4.22;;;;;;;26.61;27.94;102576.00;3585277;40;20056;-65
2022/08/06 10:57:40;;;;;;;2.33;1.13;;;;;;;26.69;29.69;102582.59;3585911;40;20398;-65
2022/08/06 11:00:07;;;;;;;4.03;0.63;;;;;;;26.47;30.23;102543.41;3587481;40;20051;-65
2022/08/06 11:03:13;;;;;;;1.20;0.50;;;;;;;26.74;29.30;102585.78;3587858;40;20071;-64
2022/08/06 11:05:40;;;;;;;3.28;0.60;;;;;;;26.84;28.77;102578.25;3587105;40;20056;-65
2022/08/06 11:08:42;;;;;;;1.75;0.60;;;;;;;27.03;28.00;102580.84;3585013;40;20079;-64
2022/08/06 11:11:26;;;;;;;1.67;0.50;;;;;;;27.02;28.84;102573.59;3587178;40;20059;-65
2022/08/06 11:14:01;;;;;;;;;;;;;;;27.13;29.51;102568.81;3589348;39;20709;-64
2022/08/06 11:16:30;;;;;;;1.85;0.57;;;;;;;27.36;29.45;102564.50;3584933;40;20004;-64
2022/08/06 11:19:11;;;;;;;1.25;0.43;;;;;;;27.58;29.47;102578.81;3586065;40;20048;-64
2022/08/06 11:21:44;;;;;;;2.53;1.02;;;;;;;27.64;27.48;102572.63;3588950;40;20055;-65
2022/08/06 11:24:12;;;;;;;5.80;1.10;;;;;;;27.75;28.13;102567.69;3589456;40;20099;-65
2022/08/06 11:26:42;;;;;;;7.25;1.25;;;;;;;27.63;27.16;102569.00;3586839;40;20087;-64
2022/08/06 11:29:12;;;;;;;1.67;0.50;;;;;;;27.70;28.31;102572.81;3582906;40;20067;-64
2022/08/06 11:31:41;;;;;;;2.15;0.70;;;;;;;27.74;28.18;102581.66;3582950;39;20055;-64
2022/08/06 11:34:13;;;;;;;3.40;0.70;;;;;;;27.54;29.46;102540.44;3575536;40;20084;-64
2022/08/06 11:36:51;;;;;;;1.73;0.68;;;;;;;27.59;27.07;102566.72;3578749;39;20283;-64
2022/08/06 11:39:20;;;;;;;2.22;0.77;;;;;;;27.47;28.74;102561.50;3573389;40;20150;-64
2022/08/06 11:42:02;;;;;;;1.33;0.70;;;;;;;27.57;28.31;102571.56;3584707;40;20056;-64
2022/08/06 11:44:32;;;;;;;2.00;0.73;;;;;;;27.76;26.84;102565.78;3585867;40;20082;-64
2022/08/06 11:47:18;;;;;;;1.52;0.80;;;;;;;27.83;26.03;102558.56;3583459;40;20050;-63
2022/08/06 11:49:47;;;;;;;2.17;1.20;;;;;;;28.02;27.20;102560.19;3586743;39;20052;-64
2022/08/06 11:52:31;;;;;;;3.47;0.82;;;;;;;28.19;27.52;102558.34;3586193;39;20467;-63
2022/08/06 11:55:01;;;;;;;1.85;0.50;;;;;;;28.47;25.59;102556.19;3587658;39;20403;-63